createdAt,value
2019-06-08T00:00:02.692Z,16.77
2019-06-08T00:05:07.827Z,16.82
2019-06-08T00:10:12.700Z,17.06
2019-06-08T00:15:16.299Z,17.21
2019-06-08T00:20:19.850Z,17.28
2019-06-08T00:25:24.220Z,17.37
2019-06-08T00:30:28.831Z,17.45
2019-06-08T00:35:32.739Z,17.49
2019-06-08T00:40:36.134Z,17.45
2019-06-08T00:45:39.599Z,17.23
2019-06-08T00:50:43.241Z,17.21
2019-06-08T00:55:46.637Z,17.29
2019-06-08T01:00:50.429Z,17.26
2019-06-08T01:05:53.817Z,17.36
2019-06-08T01:10:57.218Z,17.42
2019-06-08T01:16:00.617Z,17.54
2019-06-08T01:21:04.278Z,17.68
2019-06-08T01:26:07.667Z,17.73
2019-06-08T01:31:11.324Z,17.67
2019-06-08T01:36:14.715Z,17.61
2019-06-08T01:41:18.455Z,17.53
2019-06-08T01:46:21.969Z,17.59
2019-06-08T01:51:26.501Z,17.74
2019-06-08T01:56:31.218Z,17.87
2019-06-08T02:01:34.805Z,17.89
2019-06-08T02:06:38.229Z,17.92
2019-06-08T02:11:41.621Z,17.99
2019-06-08T02:16:45.019Z,17.99
2019-06-08T02:21:48.430Z,18.01
2019-06-08T02:26:51.877Z,18.02
2019-06-08T02:31:55.291Z,18.02
2019-06-08T02:36:58.715Z,17.98
2019-06-08T02:42:02.122Z,17.93
2019-06-08T02:47:06.027Z,17.93
2019-06-08T02:52:10.482Z,17.97
2019-06-08T02:57:15.050Z,17.84
2019-06-08T03:02:20.494Z,17.84
2019-06-08T03:07:25.144Z,17.87
2019-06-08T03:12:28.570Z,17.80
2019-06-08T03:17:33.383Z,17.73
2019-06-08T03:22:40.791Z,17.65
2019-06-08T03:27:43.188Z,17.55
2019-06-08T03:32:55.610Z,17.45
2019-06-08T03:37:52.790Z,17.34
2019-06-08T03:42:58.007Z,17.23
2019-06-08T03:48:01.475Z,17.24
2019-06-08T03:53:05.034Z,17.29
2019-06-08T03:58:10.398Z,17.27
2019-06-08T04:03:13.546Z,17.28
2019-06-08T04:08:16.936Z,17.26
2019-06-08T04:13:20.355Z,17.28
2019-06-08T04:18:23.757Z,17.20
2019-06-08T04:23:27.171Z,17.20
2019-06-08T04:28:30.563Z,17.18
2019-06-08T04:33:33.990Z,17.21
2019-06-08T04:38:38.923Z,17.22
2019-06-08T04:43:43.054Z,17.21
2019-06-08T04:48:49.856Z,17.19
2019-06-08T04:53:52.705Z,17.19
2019-06-08T04:58:56.096Z,17.18
2019-06-08T05:03:59.498Z,17.18
2019-06-08T05:09:03.359Z,17.27
2019-06-08T05:14:06.813Z,17.26
2019-06-08T05:19:10.226Z,17.15
2019-06-08T05:24:13.982Z,17.05
2019-06-08T05:29:17.378Z,17.11
2019-06-08T05:34:20.874Z,17.06
2019-06-08T05:39:24.284Z,17.06
2019-06-08T05:44:27.748Z,17.08
2019-06-08T05:49:31.149Z,17.15
2019-06-08T05:54:34.545Z,17.15
2019-06-08T05:59:37.933Z,17.16
2019-06-08T06:04:42.459Z,17.24
2019-06-08T06:09:46.950Z,17.25
2019-06-08T06:14:51.285Z,17.26
2019-06-08T06:19:54.827Z,17.26
2019-06-08T06:24:58.220Z,17.31
2019-06-08T06:30:02.230Z,17.30
2019-06-08T06:35:06.682Z,17.38
2019-06-08T06:40:10.718Z,17.39
2019-06-08T06:45:14.916Z,17.38
2019-06-08T06:50:18.636Z,17.39
2019-06-08T06:55:25.223Z,17.50
2019-06-08T07:00:32.561Z,17.51
2019-06-08T07:05:36.017Z,17.44
2019-06-08T07:10:39.409Z,17.42
2019-06-08T07:15:42.822Z,17.43
2019-06-08T07:20:46.274Z,17.44
2019-06-08T07:25:50.423Z,17.45
2019-06-08T07:30:54.872Z,17.49
2019-06-08T07:35:59.879Z,17.57
2019-06-08T07:41:03.404Z,17.52
2019-06-08T07:46:07.100Z,17.60
2019-06-08T07:51:10.491Z,17.71
2019-06-08T07:56:13.880Z,17.74
2019-06-08T08:01:17.269Z,17.70
2019-06-08T08:06:20.662Z,17.80
2019-06-08T08:11:24.422Z,17.82
2019-06-08T08:16:27.812Z,17.94
2019-06-08T08:21:31.208Z,18.03
2019-06-08T08:26:34.866Z,18.21
2019-06-08T08:31:38.270Z,18.33
2019-06-08T08:36:41.913Z,18.37
2019-06-08T08:41:45.304Z,18.33
2019-06-08T08:46:50.190Z,18.45
2019-06-08T08:51:54.093Z,18.58
2019-06-08T08:57:01.795Z,18.70
2019-06-08T09:02:03.148Z,18.81
2019-06-08T09:07:09.998Z,18.95
2019-06-08T09:12:11.785Z,19.24
2019-06-08T09:17:17.900Z,19.53
2019-06-08T09:22:20.421Z,19.70
2019-06-08T09:27:23.801Z,19.85
2019-06-08T09:32:28.186Z,19.71
2019-06-08T09:43:34.875Z,19.96
2019-06-08T09:48:38.356Z,19.96
2019-06-08T09:53:41.993Z,20.03
2019-06-08T09:58:45.657Z,20.14
2019-06-08T10:03:49.050Z,20.37
2019-06-08T10:08:52.452Z,20.66
2019-06-08T10:13:59.456Z,20.66
2019-06-08T10:19:03.897Z,20.56
2019-06-08T10:24:09.105Z,20.48
2019-06-08T10:29:11.245Z,20.80
2019-06-08T10:34:14.883Z,20.68
2019-06-08T10:39:18.517Z,20.75
2019-06-08T10:44:21.901Z,20.70
2019-06-08T10:49:28.430Z,20.88
2019-06-08T10:54:30.655Z,20.87
2019-06-08T10:59:36.582Z,21.07
2019-06-08T11:04:43.191Z,21.11
2019-06-08T11:09:44.372Z,20.71
2019-06-08T11:14:48.175Z,20.60
2019-06-08T11:19:51.628Z,20.99
2019-06-08T11:24:55.033Z,21.36
2019-06-08T11:29:59.585Z,21.53
2019-06-08T11:35:06.491Z,21.72
2019-06-08T11:40:12.884Z,22.02
2019-06-08T11:45:17.725Z,22.08
2019-06-08T11:50:41.791Z,22.24
2019-06-08T11:55:44.251Z,22.56
2019-06-08T12:01:05.480Z,22.64
2019-06-08T12:06:12.327Z,22.75
2019-06-08T12:11:18.817Z,23.09
2019-06-08T12:16:22.303Z,23.02
2019-06-08T12:21:27.253Z,22.43
2019-06-08T12:26:30.188Z,22.68
2019-06-08T12:31:33.818Z,22.97
2019-06-08T12:36:37.609Z,23.06
2019-06-08T12:41:40.975Z,23.05
2019-06-08T12:46:44.375Z,23.03
2019-06-08T12:51:50.670Z,23.26
2019-06-08T12:56:52.901Z,23.78
2019-06-08T13:01:58.528Z,24.00
2019-06-08T13:07:01.672Z,23.76
2019-06-08T13:12:07.738Z,23.97
2019-06-08T13:17:11.538Z,24.33
2019-06-08T13:22:15.285Z,24.32
2019-06-08T13:27:21.520Z,23.96
2019-06-08T13:32:23.817Z,24.17
2019-06-08T13:37:27.608Z,24.21
2019-06-08T13:42:31.042Z,24.03
2019-06-08T13:47:38.140Z,24.23
2019-06-08T13:52:39.805Z,24.26
2019-06-08T13:57:43.468Z,24.51
2019-06-08T14:02:48.492Z,25.13
2019-06-08T14:07:51.933Z,25.63
2019-06-08T14:12:55.382Z,25.54
2019-06-08T14:17:58.792Z,25.67
2019-06-08T14:23:02.250Z,25.85
2019-06-08T14:28:05.752Z,26.04
2019-06-08T14:33:09.144Z,26.15
2019-06-08T14:38:12.557Z,26.28
2019-06-08T14:43:17.631Z,26.42
2019-06-08T14:48:24.111Z,26.57
2019-06-08T14:53:26.846Z,26.87
2019-06-08T14:58:34.572Z,27.05
2019-06-08T15:03:37.715Z,26.99
2019-06-08T15:08:40.627Z,27.29
2019-06-08T15:13:44.028Z,27.30
2019-06-08T15:18:47.724Z,27.30
2019-06-08T15:23:51.120Z,27.40
2019-06-08T15:28:54.512Z,26.99
2019-06-08T15:34:00.683Z,26.56
2019-06-08T15:39:03.293Z,26.30
2019-06-08T15:44:06.684Z,26.75
2019-06-08T15:49:11.061Z,27.15
2019-06-08T15:54:14.565Z,27.61
2019-06-08T15:59:17.963Z,27.45
2019-06-08T16:04:21.353Z,27.53
2019-06-08T16:09:25.975Z,27.41
2019-06-08T16:14:30.937Z,27.48
2019-06-08T16:19:35.858Z,27.51
2019-06-08T16:24:39.358Z,27.15
2019-06-08T16:29:43.098Z,27.38
2019-06-08T16:34:46.496Z,27.90
2019-06-08T16:39:49.961Z,27.88
2019-06-08T16:44:53.649Z,28.06
2019-06-08T16:49:57.372Z,28.14
2019-06-08T16:55:00.793Z,27.93
2019-06-08T17:00:30.157Z,27.80
2019-06-08T17:05:10.621Z,27.80
2019-06-08T17:10:14.181Z,27.95
2019-06-08T17:15:18.234Z,28.03
2019-06-08T17:20:21.629Z,28.11
2019-06-08T17:25:25.026Z,27.76
2019-06-08T17:30:28.424Z,27.80
2019-06-08T17:35:33.387Z,27.92
2019-06-08T17:40:37.978Z,27.74
2019-06-08T17:45:42.765Z,27.61
2019-06-08T17:50:46.738Z,27.58
2019-06-08T17:55:50.134Z,27.37
2019-06-08T18:00:53.529Z,27.41
2019-06-08T18:05:58.020Z,27.55
2019-06-08T18:11:01.464Z,27.46
2019-06-08T18:16:05.073Z,27.20
2019-06-08T18:21:08.466Z,26.27
2019-06-08T18:26:11.865Z,25.40
2019-06-08T18:31:15.384Z,24.74
2019-06-08T18:36:19.209Z,24.02
2019-06-08T18:41:22.616Z,23.55
2019-06-08T18:46:27.231Z,23.07
2019-06-08T18:51:30.990Z,22.54
2019-06-08T18:56:36.057Z,21.91
2019-06-08T19:01:40.805Z,21.34
2019-06-08T19:06:48.806Z,20.89
2019-06-08T19:11:51.949Z,20.37
2019-06-08T19:16:57.943Z,19.83
2019-06-08T19:22:00.492Z,19.52
2019-06-08T19:27:03.885Z,19.59
2019-06-08T19:32:07.618Z,19.65
2019-06-08T19:37:11.012Z,19.13
2019-06-08T19:42:14.665Z,18.87
2019-06-08T19:47:18.081Z,18.22
2019-06-08T19:52:21.440Z,17.75
2019-06-08T19:57:24.928Z,17.35
2019-06-08T20:02:28.620Z,17.42
2019-06-08T20:07:32.065Z,17.28
2019-06-08T20:12:37.207Z,17.28
2019-06-08T20:17:41.657Z,17.24
2019-06-08T20:22:46.692Z,16.83
2019-06-08T20:27:51.655Z,16.55
2019-06-08T20:32:57.412Z,16.11
2019-06-08T20:38:00.252Z,15.77
2019-06-08T20:43:03.649Z,15.53
2019-06-08T20:48:07.049Z,15.48
2019-06-08T20:53:10.440Z,15.48
2019-06-08T20:58:13.832Z,15.47
2019-06-08T21:03:17.537Z,15.16
2019-06-08T21:08:20.997Z,14.99
2019-06-08T21:13:24.634Z,14.90
2019-06-08T21:18:28.052Z,15.01
2019-06-08T21:23:32.270Z,14.98
2019-06-08T21:28:35.754Z,14.80
2019-06-08T21:33:39.145Z,14.60
2019-06-08T21:38:42.634Z,14.41
2019-06-08T21:43:48.933Z,14.26
2019-06-08T21:48:53.019Z,14.47
2019-06-08T21:53:59.221Z,14.53
2019-06-08T21:59:02.447Z,14.42
2019-06-08T22:04:07.768Z,14.28
2019-06-08T22:09:11.982Z,14.36
2019-06-08T22:14:15.435Z,14.34
2019-06-08T22:19:18.855Z,14.41
2019-06-08T22:24:22.250Z,14.53
2019-06-08T22:29:27.563Z,14.50
2019-06-08T22:34:30.761Z,14.41
2019-06-08T22:39:34.158Z,14.52
2019-06-08T22:44:37.785Z,14.62
2019-06-08T22:49:41.459Z,14.59
2019-06-08T22:54:44.853Z,14.56
2019-06-08T22:59:48.261Z,14.42
2019-06-08T23:04:52.010Z,14.41
2019-06-08T23:09:59.348Z,14.46
2019-06-08T23:15:02.016Z,14.75
2019-06-08T23:20:08.706Z,14.99
2019-06-08T23:25:11.661Z,15.15
2019-06-08T23:30:18.263Z,15.18
2019-06-08T23:35:20.724Z,15.28
2019-06-08T23:40:24.112Z,15.27
2019-06-08T23:45:27.606Z,15.32
2019-06-08T23:50:31.009Z,15.29
2019-06-08T23:55:34.402Z,15.29
